ADDS TAF Board (Experimental) INFO Settings

IDs: Format: Expanded Condensed

KORD - Chicago/O'Hare Intl, IL, US

Issued at 2201 UTC 26 Feb 2015
Updated at: 2255 UTC 26 Feb 2015
Time2251Z 26/23Z 27/00Z 27/01Z 27/02Z 27/03Z 27/04Z 27/05Z 27/06Z 27/07Z 27/08Z 27/09Z 27/10Z 27/11Z
Type OBS PRVL PRVL PRVL PRVL PRVL PRVL PRVL PRVL PRVL PRVL PRVL PRVL PRVL
VIS 10 >6 >6 >6 >6 >6 >6 >6 >6 >6 >6 >6 >6 >6
CIG -- -- -- -- -- -- -- -- -- -- -- -- -- --
Cover FEW FEW FEW FEW FEW FEW FEW FEW FEW FEW FEW FEW FEW FEW
FltCat VFR VFR VFR VFR VFR VFR VFR VFR VFR VFR VFR VFR VFR VFR
WX -- -- -- -- -- -- -- -- -- -- -- -- -- --
WDir 330 340 340 330 330 330 330 330 330 330 330 330 330 330
WSpd 11 11 11 7 7 7 7 7 7 7 7 7 7 7
WGst -- -- -- -- -- -- -- -- -- -- -- -- -- --
R04/22
XWnd 10 9 9 7 7 7 7 7 7 7 7 7 7 7
HWnd 4 6 6 3 3 3 3 3 3 3 3 3 3 3
R09/27
XWnd 10 10 10 6 6 6 6 6 6 6 6 6 6 6
HWnd -6 -4 -4 -4 -4 -4 -4 -4 -4 -4 -4 -4 -4 -4
R10/28
XWnd 10 10 10 6 6 6 6 6 6 6 6 6 6 6
HWnd -6 -4 -4 -4 -4 -4 -4 -4 -4 -4 -4 -4 -4 -4
R14/32
XWnd 2 4 4 1 1 1 1 1 1 1 1 1 1 1
HWnd -11 -10 -10 -7 -7 -7 -7 -7 -7 -7 -7 -7 -7 -7

NOTE: TEMPO conditions in [brackets]. Keep in mind TEMPO conditions might be better (lower impact) than prevailing conditions.

Raw TAF
KORD 262201Z 2622/2724 34011KT P6SM FEW040
  FM270100 33007KT P6SM FEW040
  FM271500 27009KT P6SM SKC


Raw METAR
KORD 262251Z 33011KT 10SM FEW044 FEW150 M11/M19 A3030 RMK AO2 SLP273 T11061189
KORD 262151Z 32012KT 10SM SCT044 SCT180 M10/M18 A3028 RMK AO2 SLP266 T11001183
KORD 262051Z 34014KT 10SM FEW042 SCT055 SCT150 M08/M17 A3026 RMK AO2 SLP260 60000 T10781172 53008
KORD 261951Z 34012KT 10SM SCT042 SCT055 BKN150 M08/M17 A3024 RMK AO2 SLP253 T10781172

METAR Board
Radar Display
Forecast Discussion

TAF Board Legend

Potential Impact
Threat None Slight Moderate High
Visibility (sm) ≥5.1 5.1>X≥3 3>X≥1 <1
Ceiling (100 ft) ≥30.1 30.1>X≥10 10>X≥5 <5
Wind Speed (kt) <10 10≤X<20 20≤X<30 ≥30
Wind Gust (kt) <15 15≤X<25 25≤X<35 ≥35
Weather No Wx Reported VCTS,-TS,-FZRA,SN TS,FZRA +TS,+FZRA,+SN